createdAt,value
2023-02-14T00:00:26.401Z,1.60
2023-02-14T00:02:58.681Z,1.60
2023-02-14T00:05:26.687Z,1.60
2023-02-14T00:07:59.968Z,1.60
2023-02-14T00:10:28.136Z,1.60
2023-02-14T00:12:59.609Z,1.50
2023-02-14T00:15:26.943Z,1.50
2023-02-14T00:17:59.522Z,1.50
2023-02-14T00:20:28.251Z,1.50
2023-02-14T00:22:58.321Z,1.50
2023-02-14T00:25:45.458Z,1.60
2023-02-14T00:28:13.487Z,1.60
2023-02-14T00:30:41.597Z,2.00
2023-02-14T00:33:09.676Z,2.20
2023-02-14T00:35:39.072Z,1.60
2023-02-14T00:38:07.229Z,1.50
2023-02-14T00:40:35.635Z,2.10
2023-02-14T00:43:05.410Z,1.60
2023-02-14T00:45:33.569Z,1.70
2023-02-14T00:48:01.730Z,1.60
2023-02-14T00:50:29.775Z,1.70
2023-02-14T00:52:57.768Z,1.70
2023-02-14T00:55:26.546Z,1.70
2023-02-14T00:57:54.591Z,1.70
2023-02-14T01:00:24.996Z,1.70
2023-02-14T01:02:54.096Z,1.60
2023-02-14T01:05:22.121Z,1.70
2023-02-14T01:07:50.147Z,1.60
2023-02-14T01:10:18.592Z,1.60
2023-02-14T01:12:46.565Z,1.60
2023-02-14T01:15:14.591Z,1.60
2023-02-14T01:17:44.214Z,1.60
2023-02-14T01:20:12.626Z,1.60
2023-02-14T01:22:40.673Z,1.60
2023-02-14T01:25:08.941Z,1.50
2023-02-14T01:27:37.036Z,1.40
2023-02-14T01:30:05.894Z,1.40
2023-02-14T01:32:34.453Z,1.40
2023-02-14T01:35:04.736Z,1.30
2023-02-14T01:37:33.105Z,1.30
2023-02-14T01:40:01.584Z,1.40
2023-02-14T01:42:30.488Z,1.40
2023-02-14T01:45:06.895Z,1.40
2023-02-14T01:47:42.896Z,1.50
2023-02-14T01:50:16.375Z,1.60
2023-02-14T01:52:48.674Z,1.50
2023-02-14T01:55:20.826Z,2.10
2023-02-14T01:57:53.176Z,1.40
2023-02-14T02:00:45.134Z,1.40
2023-02-14T02:03:14.801Z,1.50
2023-02-14T02:05:48.343Z,1.50
2023-02-14T02:08:16.983Z,1.40
2023-02-14T02:10:44.964Z,1.40
2023-02-14T02:13:18.347Z,1.40
2023-02-14T02:15:57.726Z,1.50
2023-02-14T02:18:36.185Z,1.50
2023-02-14T02:21:48.529Z,1.50
2023-02-14T02:24:29.235Z,1.50
2023-02-14T02:27:36.383Z,1.40
2023-02-14T02:30:46.648Z,1.40
2023-02-14T02:33:43.119Z,1.50
2023-02-14T02:36:49.687Z,1.50
2023-02-14T02:39:32.745Z,1.40
2023-02-14T02:42:15.973Z,1.40
2023-02-14T02:44:51.722Z,1.40
2023-02-14T02:47:28.945Z,1.40
2023-02-14T02:50:21.208Z,1.40
2023-02-14T02:53:06.274Z,1.50
2023-02-14T02:56:08.316Z,1.50
2023-02-14T02:58:40.164Z,1.60
2023-02-14T03:01:13.078Z,1.60
2023-02-14T03:04:02.161Z,1.50
2023-02-14T03:06:31.789Z,1.50
2023-02-14T03:09:10.536Z,1.50
2023-02-14T03:11:50.220Z,1.40
2023-02-14T03:14:22.153Z,1.50
2023-02-14T03:17:00.354Z,1.40
2023-02-14T03:20:05.993Z,1.40
2023-02-14T03:22:51.496Z,1.40
2023-02-14T03:25:32.410Z,1.30
2023-02-14T03:28:08.697Z,1.30
2023-02-14T03:30:45.827Z,1.40
2023-02-14T03:33:21.738Z,0.80
2023-02-14T03:35:56.321Z,1.30
2023-02-14T03:38:29.023Z,1.30
2023-02-14T03:41:00.691Z,1.30
2023-02-14T03:43:34.185Z,1.30
2023-02-14T03:46:07.794Z,1.30
2023-02-14T03:48:37.995Z,1.30
2023-02-14T03:51:08.737Z,1.40
2023-02-14T03:53:40.023Z,1.40
2023-02-14T03:56:15.218Z,1.30
2023-02-14T03:58:48.414Z,1.30
2023-02-14T04:01:20.539Z,1.50
2023-02-14T04:03:49.868Z,1.50
2023-02-14T04:06:19.577Z,1.50
2023-02-14T04:08:47.935Z,1.50
2023-02-14T04:11:16.299Z,1.60
2023-02-14T04:13:45.826Z,1.60
2023-02-14T04:16:13.934Z,1.60
2023-02-14T04:18:59.324Z,1.60
2023-02-14T04:21:27.863Z,1.60
2023-02-14T04:23:55.869Z,1.50
2023-02-14T04:26:23.878Z,1.60
2023-02-14T04:28:53.239Z,1.60
2023-02-14T04:31:21.407Z,1.50
2023-02-14T04:33:51.204Z,1.40
2023-02-14T04:36:19.227Z,1.50
2023-02-14T04:38:47.290Z,1.50
2023-02-14T04:41:15.289Z,1.40
2023-02-14T04:43:43.291Z,1.40
2023-02-14T04:46:12.815Z,1.40
2023-02-14T04:48:40.854Z,1.50
2023-02-14T04:51:08.884Z,1.40
2023-02-14T04:53:40.198Z,1.50
2023-02-14T04:56:08.868Z,1.60
2023-02-14T04:58:37.213Z,1.50
2023-02-14T05:01:05.241Z,1.50
2023-02-14T05:03:34.690Z,1.50
2023-02-14T05:06:09.874Z,1.50
2023-02-14T05:08:37.916Z,1.50
2023-02-14T05:11:06.301Z,1.60
2023-02-14T05:13:34.415Z,1.60
2023-02-14T05:16:02.713Z,1.60
2023-02-14T05:18:30.769Z,1.60
2023-02-14T05:21:00.564Z,1.70
2023-02-14T05:23:28.865Z,1.60
2023-02-14T05:25:56.871Z,1.60
2023-02-14T05:28:25.294Z,1.60
2023-02-14T05:30:53.393Z,1.60
2023-02-14T05:33:21.411Z,1.50
2023-02-14T05:35:49.501Z,1.50
2023-02-14T05:38:19.223Z,1.50
2023-02-14T05:40:48.152Z,1.50
2023-02-14T05:43:16.225Z,1.50
2023-02-14T05:45:44.244Z,1.50
2023-02-14T05:48:12.479Z,1.40
2023-02-14T05:50:41.829Z,1.40
2023-02-14T05:53:10.140Z,1.40
2023-02-14T05:55:39.599Z,1.50
2023-02-14T05:58:08.038Z,1.50
2023-02-14T06:00:38.833Z,1.50
2023-02-14T06:03:08.002Z,1.50
2023-02-14T06:05:36.082Z,1.50
2023-02-14T06:08:04.130Z,1.60
2023-02-14T06:10:32.192Z,1.50
2023-02-14T06:13:01.586Z,1.50
2023-02-14T06:15:29.706Z,1.50
2023-02-14T06:17:58.721Z,1.50
2023-02-14T06:20:27.525Z,1.40
2023-02-14T06:22:55.961Z,1.50
2023-02-14T06:25:25.622Z,1.40
2023-02-14T06:27:57.183Z,1.40
2023-02-14T06:30:28.460Z,1.40
2023-02-14T06:32:56.527Z,1.30
2023-02-14T06:35:24.496Z,1.40
2023-02-14T06:37:52.437Z,1.40
2023-02-14T06:40:20.758Z,1.50
2023-02-14T06:42:48.760Z,1.40
2023-02-14T06:45:16.974Z,1.40
2023-02-14T06:47:47.247Z,1.40
2023-02-14T06:50:15.303Z,1.50
2023-02-14T06:52:44.472Z,1.40
2023-02-14T06:55:13.871Z,1.50
2023-02-14T06:57:41.936Z,1.50
2023-02-14T07:00:11.232Z,1.50
2023-02-14T07:02:39.684Z,1.60
2023-02-14T07:05:09.494Z,1.60
2023-02-14T07:07:37.520Z,1.60
2023-02-14T07:10:06.312Z,1.70
2023-02-14T07:12:34.814Z,1.70
2023-02-14T07:15:02.835Z,1.70
2023-02-14T07:17:30.808Z,1.60
2023-02-14T07:19:58.772Z,1.60
2023-02-14T07:22:30.138Z,1.60
2023-02-14T07:24:58.345Z,1.70
2023-02-14T07:27:26.356Z,1.70
2023-02-14T07:29:54.442Z,1.70
2023-02-14T07:32:23.404Z,1.70
2023-02-14T07:34:51.538Z,1.70
2023-02-14T07:37:19.876Z,1.80
2023-02-14T07:39:49.247Z,1.80
2023-02-14T07:42:17.237Z,1.80
2023-02-14T07:44:46.321Z,2.30
2023-02-14T07:47:14.298Z,1.90
2023-02-14T07:49:42.312Z,1.70
2023-02-14T07:52:10.558Z,1.70
2023-02-14T07:54:38.701Z,1.70
2023-02-14T07:57:08.108Z,1.80
2023-02-14T07:59:36.291Z,1.70
2023-02-14T08:02:04.342Z,1.70
2023-02-14T08:04:33.892Z,1.80
2023-02-14T08:07:02.022Z,1.80
2023-02-14T08:09:30.345Z,1.70
2023-02-14T08:12:17.401Z,1.70
2023-02-14T08:14:46.794Z,1.50
2023-02-14T08:17:14.821Z,1.60
2023-02-14T08:19:42.978Z,1.60
2023-02-14T08:22:11.052Z,1.60
2023-02-14T08:24:39.086Z,1.70
2023-02-14T08:27:07.071Z,1.70
2023-02-14T08:29:35.525Z,1.70
2023-02-14T08:32:04.943Z,1.70
2023-02-14T08:34:34.058Z,1.60
2023-02-14T08:37:02.039Z,1.60
2023-02-14T08:39:30.241Z,1.70
2023-02-14T08:41:58.251Z,1.80
2023-02-14T08:44:26.407Z,1.70
2023-02-14T08:46:54.442Z,1.80
2023-02-14T08:49:23.964Z,1.80
2023-02-14T08:51:52.213Z,1.70
2023-02-14T08:54:20.407Z,1.80
2023-02-14T08:56:48.629Z,1.80
2023-02-14T08:59:16.641Z,1.80
2023-02-14T09:01:44.650Z,2.00
2023-02-14T09:04:12.700Z,1.90
2023-02-14T09:06:42.124Z,2.10
2023-02-14T09:09:10.089Z,2.10
2023-02-14T09:11:38.441Z,2.10
2023-02-14T09:14:06.495Z,2.20
2023-02-14T09:16:34.684Z,2.20
2023-02-14T09:19:02.876Z,2.10
2023-02-14T09:21:30.962Z,2.00
2023-02-14T09:24:00.428Z,2.00
2023-02-14T09:26:28.755Z,2.10
2023-02-14T09:28:58.015Z,2.10
2023-02-14T09:31:26.596Z,2.20
2023-02-14T09:33:54.862Z,2.20
2023-02-14T09:36:23.184Z,2.20
2023-02-14T09:38:51.465Z,2.10
2023-02-14T09:41:52.937Z,2.10
2023-02-14T09:44:27.160Z,2.10
2023-02-14T09:46:58.143Z,2.30
2023-02-14T09:49:32.929Z,2.30
2023-02-14T09:52:04.786Z,2.50
2023-02-14T09:54:35.678Z,2.40
2023-02-14T09:57:12.216Z,2.40
2023-02-14T09:59:48.568Z,2.70
2023-02-14T10:02:41.604Z,2.60
2023-02-14T10:05:18.599Z,2.30
2023-02-14T10:07:58.561Z,2.50
2023-02-14T10:10:30.840Z,2.70
2023-02-14T10:13:06.551Z,2.80
2023-02-14T10:15:39.501Z,2.90
2023-02-14T10:18:15.775Z,2.90
2023-02-14T10:20:46.107Z,2.90
2023-02-14T10:23:27.012Z,2.90
2023-02-14T10:26:00.423Z,2.90
2023-02-14T10:28:33.658Z,2.70
2023-02-14T10:31:15.823Z,2.70
2023-02-14T10:33:48.488Z,2.70
2023-02-14T10:36:26.852Z,2.80
2023-02-14T10:39:03.869Z,2.70
2023-02-14T10:41:44.700Z,2.60
2023-02-14T10:44:24.006Z,2.50
2023-02-14T10:46:58.696Z,2.40
2023-02-14T10:49:36.674Z,2.70
2023-02-14T10:52:13.607Z,2.60
2023-02-14T10:54:44.131Z,2.70
2023-02-14T10:57:18.482Z,2.50
2023-02-14T10:59:53.671Z,2.50
2023-02-14T11:02:24.470Z,2.60
2023-02-14T11:04:53.329Z,2.40
2023-02-14T11:07:22.931Z,2.80
2023-02-14T11:09:50.950Z,2.90
2023-02-14T11:12:38.454Z,2.70
2023-02-14T11:15:20.664Z,3.00
2023-02-14T11:17:49.310Z,3.10
2023-02-14T11:20:29.770Z,3.20
2023-02-14T11:22:59.026Z,3.30
2023-02-14T11:25:29.159Z,3.40
2023-02-14T11:28:01.935Z,3.50
2023-02-14T11:30:42.417Z,3.50
2023-02-14T11:33:13.900Z,4.40
2023-02-14T11:35:41.852Z,3.50
2023-02-14T11:38:30.464Z,3.50
2023-02-14T11:41:01.209Z,3.30
2023-02-14T11:43:35.430Z,3.20
2023-02-14T11:46:17.424Z,3.20
2023-02-14T11:48:58.298Z,3.60
2023-02-14T11:51:36.234Z,3.80
2023-02-14T11:54:06.015Z,3.80
2023-02-14T11:56:47.937Z,3.80
2023-02-14T11:59:38.223Z,3.80
2023-02-14T12:02:24.407Z,3.80
2023-02-14T12:04:56.450Z,3.90
2023-02-14T12:07:33.004Z,4.00
2023-02-14T12:10:27.738Z,4.10
2023-02-14T12:16:45.213Z,3.90
2023-02-14T12:19:25.479Z,3.90
2023-02-14T12:21:59.229Z,3.80
2023-02-14T12:24:34.602Z,3.90
2023-02-14T12:27:20.064Z,4.00
2023-02-14T12:29:53.301Z,3.80
2023-02-14T12:32:32.878Z,4.00
2023-02-14T12:35:08.310Z,4.30
2023-02-14T12:38:04.715Z,4.50
2023-02-14T12:40:48.531Z,4.60
2023-02-14T12:43:50.613Z,4.50
2023-02-14T12:46:53.442Z,4.70
2023-02-14T12:49:49.365Z,4.70
2023-02-14T12:52:44.365Z,4.60
2023-02-14T12:55:38.079Z,4.50
2023-02-14T12:58:29.552Z,4.40
2023-02-14T13:01:16.307Z,4.00
2023-02-14T13:04:05.629Z,4.00
2023-02-14T13:06:37.046Z,3.90
2023-02-14T13:09:19.648Z,4.10
2023-02-14T13:12:05.567Z,4.20
2023-02-14T13:18:25.773Z,4.30
2023-02-14T13:21:04.546Z,4.40
2023-02-14T13:23:44.895Z,4.10
2023-02-14T13:26:17.314Z,4.00
2023-02-14T13:28:51.866Z,4.10
2023-02-14T13:31:21.270Z,4.30
2023-02-14T13:33:53.419Z,4.20
2023-02-14T13:36:22.840Z,4.20
2023-02-14T13:41:25.422Z,4.20
2023-02-14T13:43:56.434Z,4.30
2023-02-14T13:46:55.253Z,4.50
2023-02-14T13:49:32.857Z,4.60
2023-02-14T13:52:03.682Z,4.50
2023-02-14T13:54:38.714Z,4.40
2023-02-14T13:57:34.119Z,4.50
2023-02-14T14:00:37.647Z,4.70
2023-02-14T14:03:06.660Z,4.80
2023-02-14T14:05:50.233Z,4.60
2023-02-14T14:08:42.184Z,4.40
2023-02-14T14:11:56.812Z,4.30
2023-02-14T14:14:36.430Z,4.30
2023-02-14T14:17:20.604Z,4.60
2023-02-14T14:19:48.777Z,4.50
2023-02-14T14:22:17.661Z,4.40
2023-02-14T14:25:12.359Z,4.40
2023-02-14T14:27:44.078Z,4.40
2023-02-14T14:30:22.270Z,4.00
2023-02-14T14:32:52.417Z,4.20
2023-02-14T14:35:31.364Z,4.40
2023-02-14T14:38:06.632Z,4.90
2023-02-14T14:40:37.465Z,4.10
2023-02-14T14:43:10.865Z,4.10
2023-02-14T14:45:41.830Z,3.90
2023-02-14T14:48:17.763Z,4.10
2023-02-14T14:50:56.379Z,4.20
2023-02-14T14:53:45.970Z,4.30
2023-02-14T14:56:15.189Z,4.20
2023-02-14T14:58:45.551Z,4.10
2023-02-14T15:01:30.847Z,3.90
2023-02-14T15:04:12.418Z,3.70
2023-02-14T15:06:48.439Z,3.80
2023-02-14T15:09:33.546Z,3.70
2023-02-14T15:12:35.050Z,3.80
2023-02-14T15:15:03.376Z,3.70
2023-02-14T15:17:34.470Z,3.70
2023-02-14T15:20:19.964Z,3.70
2023-02-14T15:22:58.434Z,3.70
2023-02-14T15:25:39.398Z,3.50
2023-02-14T15:28:07.375Z,3.60
2023-02-14T15:30:38.975Z,3.60
2023-02-14T15:33:15.389Z,4.30
2023-02-14T15:35:44.925Z,3.60
2023-02-14T15:38:21.239Z,3.60
2023-02-14T15:40:54.597Z,3.60
2023-02-14T15:43:30.766Z,3.70
2023-02-14T15:46:02.715Z,3.70
2023-02-14T15:48:45.599Z,3.50
2023-02-14T15:51:36.491Z,4.10
2023-02-14T15:54:22.190Z,3.50
2023-02-14T15:56:58.730Z,3.40
2023-02-14T15:59:36.677Z,3.60
2023-02-14T16:02:15.924Z,3.50
2023-02-14T16:04:45.487Z,3.40
2023-02-14T16:07:31.421Z,3.40
2023-02-14T16:10:26.723Z,3.20
2023-02-14T16:13:01.837Z,3.20
2023-02-14T16:15:31.812Z,3.20
2023-02-14T16:18:20.160Z,3.10
2023-02-14T16:20:51.227Z,3.20
2023-02-14T16:23:27.545Z,3.20
2023-02-14T16:25:57.432Z,3.20
2023-02-14T16:28:30.272Z,3.20
2023-02-14T16:31:00.595Z,3.20
2023-02-14T16:33:34.566Z,3.10
2023-02-14T16:36:09.281Z,3.10
2023-02-14T16:38:43.852Z,3.00
2023-02-14T16:41:20.839Z,3.00
2023-02-14T16:43:54.895Z,3.10
2023-02-14T16:46:26.655Z,3.10
2023-02-14T16:48:57.340Z,3.00
2023-02-14T16:51:49.595Z,2.90
2023-02-14T16:54:20.669Z,2.90
2023-02-14T16:56:56.911Z,2.90
2023-02-14T16:59:24.987Z,2.70
2023-02-14T17:01:54.705Z,2.50
2023-02-14T17:04:22.750Z,2.50
2023-02-14T17:06:57.960Z,2.50
2023-02-14T17:09:32.921Z,2.40
2023-02-14T17:12:06.947Z,2.40
2023-02-14T17:14:39.524Z,2.40
2023-02-14T17:17:14.077Z,2.30
2023-02-14T17:19:44.678Z,2.40
2023-02-14T17:22:15.516Z,2.50
2023-02-14T17:24:52.777Z,2.40
2023-02-14T17:27:25.015Z,2.50
2023-02-14T17:29:53.549Z,2.50
2023-02-14T17:32:29.494Z,2.60
2023-02-14T17:34:58.554Z,2.50
2023-02-14T17:37:39.594Z,2.50
2023-02-14T17:40:09.296Z,2.40
2023-02-14T17:42:38.603Z,2.40
2023-02-14T17:45:11.796Z,2.40
2023-02-14T17:47:43.022Z,2.30
2023-02-14T17:50:14.667Z,2.20
2023-02-14T17:52:44.043Z,2.30
2023-02-14T17:55:13.053Z,2.40
2023-02-14T17:57:55.101Z,2.40
2023-02-14T18:00:24.343Z,2.50
2023-02-14T18:02:52.376Z,2.40
2023-02-14T18:05:27.817Z,2.40
2023-02-14T18:07:57.779Z,2.40
2023-02-14T18:10:25.762Z,2.40
2023-02-14T18:12:53.723Z,2.30
2023-02-14T18:15:22.169Z,2.30
2023-02-14T18:18:06.341Z,2.30
2023-02-14T18:20:34.309Z,2.30
2023-02-14T18:23:07.230Z,2.20
2023-02-14T18:25:35.341Z,2.10
2023-02-14T18:28:04.765Z,2.10
2023-02-14T18:30:38.857Z,2.30
2023-02-14T18:33:06.813Z,2.10
2023-02-14T18:35:35.899Z,2.10
2023-02-14T18:38:18.415Z,2.10
2023-02-14T18:40:46.817Z,2.10
2023-02-14T18:43:15.078Z,2.10
2023-02-14T18:45:43.104Z,2.10
2023-02-14T18:48:11.133Z,2.20
2023-02-14T18:50:39.177Z,2.10
2023-02-14T18:53:07.129Z,2.10
2023-02-14T18:55:38.050Z,2.20
2023-02-14T18:58:07.870Z,2.20
2023-02-14T19:00:37.947Z,2.10
2023-02-14T19:03:09.341Z,2.10
2023-02-14T19:05:39.709Z,2.40
2023-02-14T19:08:13.978Z,1.90
2023-02-14T19:10:56.826Z,1.90
2023-02-14T19:13:29.396Z,1.90
2023-02-14T19:15:57.749Z,1.90
2023-02-14T19:18:34.806Z,1.90
2023-02-14T19:21:11.084Z,1.90
2023-02-14T19:23:39.449Z,2.50
2023-02-14T19:26:22.487Z,1.90
2023-02-14T19:28:55.432Z,2.00
2023-02-14T19:31:23.704Z,2.00
2023-02-14T19:33:53.508Z,2.00
2023-02-14T19:36:23.117Z,2.00
2023-02-14T19:39:00.575Z,2.20
2023-02-14T19:41:34.489Z,1.90
2023-02-14T19:44:25.793Z,1.70
2023-02-14T19:46:56.370Z,1.70
2023-02-14T19:49:38.593Z,1.60
2023-02-14T19:52:14.180Z,1.60
2023-02-14T19:54:50.055Z,1.70
2023-02-14T19:57:21.370Z,1.50
2023-02-14T19:59:50.155Z,1.50
2023-02-14T20:02:20.070Z,1.50
2023-02-14T20:04:48.155Z,1.60
2023-02-14T20:07:16.682Z,1.60
2023-02-14T20:09:55.104Z,1.70
2023-02-14T20:12:33.964Z,1.70
2023-02-14T20:15:10.909Z,1.70
2023-02-14T20:17:48.536Z,1.80
2023-02-14T20:20:52.406Z,1.70
2023-02-14T20:23:22.533Z,1.70
2023-02-14T20:25:50.599Z,1.70
2023-02-14T20:28:42.584Z,1.60
2023-02-14T20:31:13.742Z,1.60
2023-02-14T20:33:52.243Z,1.60
2023-02-14T20:36:24.042Z,1.60
2023-02-14T20:39:03.301Z,1.60
2023-02-14T20:41:58.594Z,1.60
2023-02-14T20:44:35.957Z,1.50
2023-02-14T20:47:04.094Z,1.40
2023-02-14T20:49:44.596Z,1.50
2023-02-14T20:52:27.903Z,1.50
2023-02-14T20:55:00.007Z,1.50
2023-02-14T20:58:34.844Z,1.60
2023-02-14T21:00:31.312Z,1.50
2023-02-14T21:03:08.880Z,1.60
2023-02-14T21:05:38.478Z,1.80
2023-02-14T21:08:45.570Z,1.50
2023-02-14T21:11:22.546Z,0.90
2023-02-14T21:13:59.202Z,1.40
2023-02-14T21:16:51.762Z,1.30
2023-02-14T21:19:51.662Z,1.30
2023-02-14T21:22:23.095Z,1.40
2023-02-14T21:25:25.812Z,1.40
2023-02-14T21:28:00.076Z,1.30
2023-02-14T21:30:39.042Z,1.20
2023-02-14T21:33:19.968Z,1.20
2023-02-14T21:35:50.049Z,1.20
2023-02-14T21:38:28.032Z,1.30
2023-02-14T21:41:11.371Z,1.20
2023-02-14T21:43:51.684Z,1.20
2023-02-14T21:46:27.106Z,1.20
2023-02-14T21:49:15.992Z,1.40
2023-02-14T21:51:58.550Z,1.50
2023-02-14T21:54:28.361Z,1.40
2023-02-14T21:57:04.051Z,1.40
2023-02-14T21:59:48.699Z,1.30
2023-02-14T22:02:33.588Z,1.80
2023-02-14T22:17:02.162Z,1.40
2023-02-14T22:28:23.214Z,0.20
2023-02-14T22:32:40.926Z,0.40
2023-02-14T22:54:04.933Z,1.10
2023-02-14T22:56:52.222Z,1.40
2023-02-14T22:59:22.219Z,2.10
2023-02-14T23:01:51.213Z,1.20
2023-02-14T23:04:21.800Z,1.20
2023-02-14T23:06:50.376Z,1.10
2023-02-14T23:09:18.485Z,1.00
2023-02-14T23:11:54.044Z,1.00
2023-02-14T23:14:40.707Z,1.00
2023-02-14T23:17:34.718Z,1.10
2023-02-14T23:20:31.435Z,1.10
2023-02-14T23:23:01.392Z,1.00
2023-02-14T23:25:45.522Z,1.00
2023-02-14T23:28:17.998Z,1.00
2023-02-14T23:30:53.291Z,1.00
2023-02-14T23:33:24.588Z,1.00
2023-02-14T23:59:06.016Z,1.30
